Terminal Aerodrome Forecast
Issued by NWS

Current Version | Previous Version | Text Only | Print | Product List | Glossary Off
Versions: 1 2 3 4 5 6 7 8 9 10 11 12 13 14 15 16 17 18 19 20 21 22 23 24 25 26 27 28 29 30 31

851
FTUS41 KILN 022329
TAFLUK
TAF
KLUK 022329Z 0300/0324 31006KT P6SM SCT035 BKN110
     FM030200 33006KT P6SM SCT028 OVC050
     FM030600 36003KT 4SM BR SCT015 OVC028
     FM030900 36003KT 4SM BR BKN015 OVC028
     FM031400 35006KT P6SM SCT015 OVC028
     FM031900 32008KT P6SM BKN045=

USA.gov is the U.S. government's official web portal to all federal, state and local government web resources and services.